createdAt,value
2019-04-29T00:01:50.142Z,88.76
2019-04-29T00:04:19.043Z,88.76
2019-04-29T00:06:48.306Z,88.97
2019-04-29T00:09:18.397Z,88.93
2019-04-29T00:11:47.359Z,89.08
2019-04-29T00:14:16.422Z,88.65
2019-04-29T00:17:00.572Z,88.23
2019-04-29T00:19:48.646Z,88.58
2019-04-29T00:22:17.643Z,89.27
2019-04-29T00:24:46.526Z,89.35
2019-04-29T00:27:15.472Z,89.39
2019-04-29T00:29:44.427Z,89.77
2019-04-29T00:32:13.275Z,90.13
2019-04-29T00:34:42.363Z,89.84
2019-04-29T00:37:28.536Z,89.82
2019-04-29T00:40:15.430Z,89.89
2019-04-29T00:42:54.138Z,89.67
2019-04-29T00:45:23.881Z,89.87
2019-04-29T00:47:53.108Z,90.14
2019-04-29T00:50:22.092Z,90.12
2019-04-29T00:52:51.072Z,90.53
2019-04-29T00:55:22.920Z,90.89
2019-04-29T00:57:51.849Z,90.61
2019-04-29T01:00:32.928Z,90.81
2019-04-29T01:03:01.929Z,90.76
2019-04-29T01:05:31.186Z,90.98
2019-04-29T01:08:00.392Z,91.19
2019-04-29T01:10:29.726Z,91.25
2019-04-29T01:12:59.238Z,91.34
2019-04-29T01:15:28.198Z,91.77
2019-04-29T01:17:56.995Z,91.92
2019-04-29T01:20:25.995Z,91.86
2019-04-29T01:22:54.885Z,91.51
2019-04-29T01:25:23.779Z,91.14
2019-04-29T01:27:59.298Z,91.28
2019-04-29T01:31:11.417Z,90.72
2019-04-29T01:33:43.346Z,90.90
2019-04-29T01:36:35.624Z,91.21
2019-04-29T01:39:07.671Z,91.33
2019-04-29T01:41:43.936Z,91.34
2019-04-29T01:44:12.870Z,91.30
2019-04-29T01:46:41.754Z,91.45
2019-04-29T01:49:10.735Z,91.37
2019-04-29T01:51:39.572Z,91.59
2019-04-29T01:54:08.469Z,92.03
2019-04-29T01:56:37.526Z,92.28
2019-04-29T01:59:06.476Z,92.30
2019-04-29T02:01:35.473Z,92.40
2019-04-29T02:04:04.655Z,92.27
2019-04-29T02:06:33.678Z,92.23
2019-04-29T02:09:04.287Z,92.13
2019-04-29T02:11:33.232Z,91.95
2019-04-29T02:14:02.084Z,91.84
2019-04-29T02:16:31.022Z,91.68
2019-04-29T02:18:59.952Z,91.61
2019-04-29T02:21:28.891Z,91.92
2019-04-29T02:24:07.262Z,91.74
2019-04-29T02:26:36.300Z,91.84
2019-04-29T02:29:05.238Z,91.55
2019-04-29T02:31:42.483Z,91.62
2019-04-29T02:34:11.786Z,91.59
2019-04-29T02:36:40.826Z,91.69
2019-04-29T02:39:28.670Z,91.72
2019-04-29T02:42:15.617Z,92.19
2019-04-29T02:44:44.590Z,92.30
2019-04-29T02:47:13.747Z,92.45
2019-04-29T02:49:42.672Z,92.26
2019-04-29T02:52:11.529Z,92.26
2019-04-29T02:54:40.377Z,92.46
2019-04-29T02:57:32.795Z,92.33
2019-04-29T03:00:16.791Z,91.96
2019-04-29T03:03:00.615Z,91.97
2019-04-29T03:05:34.527Z,92.18
2019-04-29T03:08:03.526Z,92.58
2019-04-29T03:10:32.575Z,92.71
2019-04-29T03:13:01.538Z,93.13
2019-04-29T03:15:32.172Z,93.12
2019-04-29T03:18:02.090Z,93.24
2019-04-29T03:20:49.970Z,93.26
2019-04-29T03:23:20.711Z,93.21
2019-04-29T03:25:49.686Z,93.09
2019-04-29T03:28:18.561Z,93.15
2019-04-29T03:30:47.504Z,93.13
2019-04-29T03:33:16.300Z,93.30
2019-04-29T03:35:45.279Z,93.27
2019-04-29T03:38:14.134Z,93.21
2019-04-29T03:40:43.305Z,93.27
2019-04-29T03:43:12.195Z,93.30
2019-04-29T03:45:41.137Z,93.17
2019-04-29T03:48:10.184Z,93.32
2019-04-29T03:50:39.137Z,93.37
2019-04-29T03:53:08.086Z,93.17
2019-04-29T03:55:40.541Z,92.96
2019-04-29T03:58:07.857Z,92.93
2019-04-29T04:00:36.793Z,93.09
2019-04-29T04:03:22.717Z,93.36
2019-04-29T04:06:15.416Z,93.58
2019-04-29T04:09:04.779Z,93.60
2019-04-29T04:11:18.331Z,93.77
2019-04-29T04:13:47.074Z,93.88
2019-04-29T04:16:32.881Z,94.08
2019-04-29T04:19:06.917Z,94.01
2019-04-29T04:21:35.767Z,93.96
2019-04-29T04:24:04.805Z,93.96
2019-04-29T04:26:33.629Z,93.75
2019-04-29T04:29:02.410Z,92.63
2019-04-29T04:31:31.274Z,92.63
2019-04-29T04:34:00.173Z,92.37
2019-04-29T04:36:29.219Z,91.94
2019-04-29T04:38:58.010Z,91.72
2019-04-29T04:41:26.990Z,91.21
2019-04-29T04:43:55.894Z,90.96
2019-04-29T04:46:24.873Z,90.94
2019-04-29T04:48:53.733Z,90.85
2019-04-29T04:51:22.755Z,90.46
2019-04-29T04:53:51.681Z,90.29
2019-04-29T04:56:20.712Z,90.06
2019-04-29T04:58:49.682Z,89.63
2019-04-29T05:01:18.636Z,89.14
2019-04-29T05:03:47.657Z,88.28
2019-04-29T05:06:16.526Z,87.80
2019-04-29T05:08:45.513Z,87.67
2019-04-29T05:11:14.492Z,87.51
2019-04-29T05:13:43.499Z,86.71
2019-04-29T05:16:12.473Z,86.28
2019-04-29T05:18:41.414Z,86.29
2019-04-29T05:21:10.473Z,86.54
2019-04-29T05:23:41.634Z,86.82
2019-04-29T05:26:09.919Z,86.83
2019-04-29T05:28:38.834Z,86.60
2019-04-29T05:31:07.773Z,86.17
2019-04-29T05:33:37.181Z,85.44
2019-04-29T05:36:24.299Z,83.70
2019-04-29T05:38:56.927Z,82.59
2019-04-29T05:41:30.163Z,82.57
2019-04-29T05:44:06.830Z,80.99
2019-04-29T05:46:45.920Z,81.92
2019-04-29T05:49:17.841Z,82.34
2019-04-29T05:51:52.545Z,82.03
2019-04-29T05:54:21.664Z,80.37
2019-04-29T05:56:50.664Z,80.67
2019-04-29T05:59:19.662Z,80.61
2019-04-29T06:01:48.959Z,80.55
2019-04-29T06:04:18.330Z,79.31
2019-04-29T06:06:47.185Z,79.04
2019-04-29T06:09:17.013Z,78.07
2019-04-29T06:11:48.051Z,77.01
2019-04-29T06:14:16.930Z,76.56
2019-04-29T06:16:45.913Z,76.72
2019-04-29T06:19:14.876Z,76.09
2019-04-29T06:21:43.662Z,75.96
2019-04-29T06:24:12.477Z,75.06
2019-04-29T06:26:43.617Z,73.86
2019-04-29T06:29:12.301Z,73.99
2019-04-29T06:31:41.062Z,74.16
2019-04-29T06:34:10.063Z,73.54
2019-04-29T06:36:38.965Z,72.51
2019-04-29T06:39:07.957Z,71.28
2019-04-29T06:41:40.610Z,69.69
2019-04-29T06:44:15.806Z,68.85
2019-04-29T06:46:38.152Z,69.94
2019-04-29T06:49:10.344Z,70.34
2019-04-29T06:51:37.734Z,68.82
2019-04-29T06:54:06.640Z,68.29
2019-04-29T06:56:35.604Z,68.28
2019-04-29T06:59:07.536Z,66.06
2019-04-29T07:01:37.511Z,65.25
2019-04-29T07:04:05.885Z,65.52
2019-04-29T07:06:34.880Z,62.91
2019-04-29T07:09:05.039Z,60.72
2019-04-29T07:11:36.642Z,56.51
2019-04-29T07:14:04.671Z,53.04
2019-04-29T07:16:33.627Z,52.78
2019-04-29T07:19:02.569Z,52.44
2019-04-29T07:21:31.504Z,52.61
2019-04-29T07:24:00.425Z,52.16
2019-04-29T07:26:29.485Z,51.52
2019-04-29T07:28:58.536Z,51.40
2019-04-29T07:31:28.294Z,51.14
2019-04-29T07:33:59.107Z,52.12
2019-04-29T07:36:28.112Z,52.13
2019-04-29T07:38:57.121Z,51.98
2019-04-29T07:41:26.023Z,51.39
2019-04-29T07:43:55.154Z,51.68
2019-04-29T07:46:55.639Z,52.83
2019-04-29T07:49:12.690Z,54.14
2019-04-29T07:51:40.841Z,52.61
2019-04-29T07:54:11.052Z,52.06
2019-04-29T07:56:42.292Z,51.86
2019-04-29T07:59:11.469Z,50.96
2019-04-29T08:01:40.310Z,51.90
2019-04-29T08:04:09.156Z,52.86
2019-04-29T08:06:43.031Z,49.33
2019-04-29T08:09:09.892Z,49.30
2019-04-29T08:11:38.839Z,48.61
2019-04-29T08:14:07.750Z,50.36
2019-04-29T08:16:36.636Z,51.29
2019-04-29T08:19:05.698Z,52.05
2019-04-29T08:21:34.566Z,52.14
2019-04-29T08:24:03.426Z,53.18
2019-04-29T08:26:33.716Z,53.26
2019-04-29T08:29:03.226Z,53.29
2019-04-29T08:31:32.138Z,53.33
2019-04-29T08:34:01.168Z,53.51
2019-04-29T08:36:30.147Z,51.77
2019-04-29T08:39:08.251Z,52.49
2019-04-29T08:41:30.096Z,51.34
2019-04-29T08:44:27.347Z,50.69
2019-04-29T08:47:01.819Z,50.87
2019-04-29T08:49:30.751Z,50.85
2019-04-29T08:51:59.853Z,51.19
2019-04-29T08:54:28.816Z,49.96
2019-04-29T08:57:02.947Z,49.71
2019-04-29T08:59:28.387Z,48.88
2019-04-29T09:01:57.365Z,48.73
2019-04-29T09:04:28.540Z,48.46
2019-04-29T09:06:56.853Z,48.50
2019-04-29T09:09:29.174Z,47.00
2019-04-29T09:11:56.264Z,46.94
2019-04-29T09:14:25.155Z,46.21
2019-04-29T09:16:54.235Z,46.20
2019-04-29T09:19:23.064Z,45.80
2019-04-29T09:21:56.071Z,44.26
2019-04-29T09:24:24.956Z,42.94
2019-04-29T09:26:59.995Z,42.91
2019-04-29T09:29:35.061Z,43.26
2019-04-29T09:32:04.863Z,40.41
2019-04-29T09:34:33.977Z,40.21
2019-04-29T09:37:03.044Z,40.22
2019-04-29T09:39:43.100Z,39.92
2019-04-29T09:42:15.529Z,41.20
2019-04-29T09:45:02.396Z,40.01
2019-04-29T09:47:32.001Z,40.85
2019-04-29T09:50:01.002Z,37.47
2019-04-29T09:52:30.045Z,37.06
2019-04-29T09:54:59.597Z,36.96
2019-04-29T09:57:29.595Z,37.33
2019-04-29T10:00:05.100Z,36.23
2019-04-29T10:02:55.229Z,36.63
2019-04-29T10:05:41.938Z,36.13
2019-04-29T10:08:11.274Z,35.85
2019-04-29T10:10:40.221Z,35.70
2019-04-29T10:13:09.539Z,34.39
2019-04-29T10:16:02.042Z,35.40
2019-04-29T10:18:36.833Z,33.98
2019-04-29T10:21:08.786Z,34.69
2019-04-29T10:23:37.694Z,35.25
2019-04-29T10:26:06.762Z,35.31
2019-04-29T10:28:38.248Z,35.02
2019-04-29T10:31:08.161Z,36.27
2019-04-29T10:33:37.053Z,35.46
2019-04-29T10:36:07.036Z,35.54
2019-04-29T10:38:35.958Z,35.50
2019-04-29T10:41:23.173Z,35.36
2019-04-29T10:44:09.902Z,35.79
2019-04-29T10:46:54.136Z,34.84
2019-04-29T10:49:27.811Z,34.77
2019-04-29T10:51:58.163Z,34.62
2019-04-29T10:54:28.509Z,34.66
2019-04-29T10:56:57.518Z,35.06
2019-04-29T10:59:35.589Z,34.30
2019-04-29T11:02:33.378Z,32.88
2019-04-29T11:05:21.164Z,32.54
2019-04-29T11:07:51.943Z,32.85
2019-04-29T11:10:27.138Z,34.02
2019-04-29T11:12:56.490Z,34.62
2019-04-29T11:15:32.605Z,34.46
2019-04-29T11:18:03.710Z,34.17
2019-04-29T11:20:33.326Z,34.98
2019-04-29T11:23:14.948Z,35.13
2019-04-29T11:25:59.191Z,33.84
2019-04-29T11:28:29.355Z,34.05
2019-04-29T11:30:58.298Z,34.08
2019-04-29T11:33:35.620Z,34.70
2019-04-29T11:36:09.241Z,35.51
2019-04-29T11:38:40.061Z,36.64
2019-04-29T11:41:11.717Z,36.22
2019-04-29T11:43:40.072Z,35.33
2019-04-29T11:46:09.968Z,35.28
2019-04-29T11:48:40.387Z,36.07
2019-04-29T11:51:19.592Z,36.61
2019-04-29T11:53:48.549Z,36.91
2019-04-29T11:56:17.526Z,36.79
2019-04-29T11:58:53.114Z,36.84
2019-04-29T12:01:50.860Z,35.89
2019-04-29T12:04:33.528Z,35.93
2019-04-29T12:07:01.314Z,35.58
2019-04-29T12:09:32.194Z,36.33
2019-04-29T12:12:01.300Z,36.75
2019-04-29T12:14:39.533Z,36.03
2019-04-29T12:17:16.142Z,36.92
2019-04-29T12:19:45.831Z,36.63
2019-04-29T12:22:26.844Z,36.53
2019-04-29T12:24:45.379Z,35.38
2019-04-29T12:27:14.726Z,35.02
2019-04-29T12:29:48.853Z,34.20
2019-04-29T12:32:26.902Z,32.66
2019-04-29T12:35:21.551Z,33.28
2019-04-29T12:38:20.447Z,34.08
2019-04-29T12:41:20.846Z,34.07
2019-04-29T12:43:59.194Z,34.09
2019-04-29T12:46:31.091Z,34.61
2019-04-29T12:49:03.489Z,35.17
2019-04-29T12:51:30.671Z,34.92
2019-04-29T12:53:59.661Z,34.67
2019-04-29T12:56:36.966Z,34.19
2019-04-29T12:59:06.848Z,34.27
2019-04-29T13:02:04.576Z,34.35
2019-04-29T13:04:51.356Z,34.10
2019-04-29T13:07:32.731Z,34.70
2019-04-29T13:10:08.521Z,34.30
2019-04-29T13:12:39.883Z,33.92
2019-04-29T13:15:39.480Z,33.99
2019-04-29T13:18:16.898Z,34.87
2019-04-29T13:20:45.613Z,36.58
2019-04-29T13:23:19.520Z,37.21
2019-04-29T13:25:46.291Z,37.03
2019-04-29T13:28:29.501Z,36.88
2019-04-29T13:30:46.851Z,37.14
2019-04-29T13:33:16.781Z,37.02
2019-04-29T13:35:48.469Z,36.87
2019-04-29T13:38:16.684Z,36.70
2019-04-29T13:40:45.686Z,35.80
2019-04-29T13:43:14.652Z,36.34
2019-04-29T13:45:53.062Z,36.88
2019-04-29T13:48:55.885Z,37.20
2019-04-29T13:51:35.317Z,37.88
2019-04-29T13:53:59.091Z,39.00
2019-04-29T13:56:39.393Z,40.93
2019-04-29T13:59:01.290Z,42.92
2019-04-29T14:01:59.952Z,43.53
2019-04-29T14:04:30.255Z,43.90
2019-04-29T14:06:59.148Z,44.52
2019-04-29T14:09:28.161Z,43.03
2019-04-29T14:12:02.877Z,43.09
2019-04-29T14:14:28.355Z,42.82
2019-04-29T14:17:17.256Z,42.75
2019-04-29T14:19:40.837Z,42.75
2019-04-29T14:21:58.540Z,42.75
2019-04-29T14:24:27.408Z,42.62
2019-04-29T14:26:57.547Z,42.14
2019-04-29T14:29:28.352Z,43.03
2019-04-29T14:32:00.810Z,43.63
2019-04-29T14:34:36.683Z,43.85
2019-04-29T14:37:21.386Z,45.44
2019-04-29T14:39:37.771Z,46.32
2019-04-29T14:42:32.040Z,49.98
2019-04-29T14:45:08.968Z,50.65
2019-04-29T14:47:49.430Z,48.67
2019-04-29T14:50:20.740Z,48.59
2019-04-29T14:52:50.504Z,50.28
2019-04-29T14:55:24.714Z,50.97
2019-04-29T14:57:50.267Z,50.84
2019-04-29T15:00:31.368Z,50.32
2019-04-29T15:03:01.099Z,51.04
2019-04-29T15:05:32.924Z,52.96
2019-04-29T15:08:01.561Z,50.31
2019-04-29T15:10:32.856Z,52.69
2019-04-29T15:13:20.730Z,54.19
2019-04-29T15:16:04.836Z,54.21
2019-04-29T15:18:53.145Z,55.24
2019-04-29T15:21:47.077Z,54.87
2019-04-29T15:24:17.624Z,55.65
2019-04-29T15:26:46.648Z,55.89
2019-04-29T15:29:15.715Z,58.06
2019-04-29T15:31:47.013Z,55.32
2019-04-29T15:34:15.388Z,58.56
2019-04-29T15:36:44.473Z,59.90
2019-04-29T15:39:13.790Z,59.94
2019-04-29T15:41:42.991Z,58.09
2019-04-29T15:44:18.835Z,60.33
2019-04-29T15:46:46.666Z,59.71
2019-04-29T15:49:13.251Z,59.45
2019-04-29T15:51:44.120Z,60.70
2019-04-29T15:54:14.360Z,60.19
2019-04-29T15:56:43.569Z,60.44
2019-04-29T15:59:12.667Z,59.20
2019-04-29T16:01:42.294Z,59.27
2019-04-29T16:04:15.823Z,57.77
2019-04-29T16:07:06.692Z,57.78
2019-04-29T16:09:57.320Z,55.00
2019-04-29T16:12:40.256Z,55.22
2019-04-29T16:15:09.292Z,53.68
2019-04-29T16:17:39.406Z,50.48
2019-04-29T16:20:08.570Z,49.63
2019-04-29T16:25:11.209Z,49.15
2019-04-29T16:27:41.647Z,48.08
2019-04-29T16:30:10.567Z,48.68
2019-04-29T16:32:40.605Z,48.43
2019-04-29T16:35:10.711Z,49.40
2019-04-29T16:37:39.723Z,50.14
2019-04-29T16:40:09.079Z,52.59
2019-04-29T16:42:45.330Z,55.51
2019-04-29T16:45:14.640Z,56.29
2019-04-29T16:47:47.469Z,57.55
2019-04-29T16:50:15.068Z,57.97
2019-04-29T16:52:44.541Z,58.39
2019-04-29T16:55:13.582Z,58.68
2019-04-29T16:57:42.608Z,60.03
2019-04-29T17:00:14.772Z,59.72
2019-04-29T17:02:44.190Z,59.54
2019-04-29T17:05:13.617Z,59.76
2019-04-29T17:07:42.594Z,59.24
2019-04-29T17:10:21.110Z,58.88
2019-04-29T17:12:51.262Z,58.38
2019-04-29T17:15:25.125Z,59.32
2019-04-29T17:17:50.962Z,59.19
2019-04-29T17:20:20.286Z,59.51
2019-04-29T17:22:50.538Z,59.03
2019-04-29T17:25:19.501Z,58.79
2019-04-29T17:28:25.699Z,59.12
2019-04-29T17:31:12.821Z,59.09
2019-04-29T17:33:50.957Z,58.61
2019-04-29T17:35:14.117Z,48.56
2019-04-29T17:36:23.807Z,58.88
2019-04-29T17:38:51.081Z,58.26
2019-04-29T17:41:20.077Z,57.50
2019-04-29T17:44:10.531Z,57.76
2019-04-29T17:46:48.263Z,57.58
2019-04-29T17:49:35.126Z,58.31
2019-04-29T17:52:06.780Z,58.07
2019-04-29T17:54:39.946Z,57.81
2019-04-29T17:57:27.926Z,58.27
2019-04-29T18:00:05.163Z,58.62
2019-04-29T18:02:57.359Z,58.52
2019-04-29T18:05:53.079Z,59.23
2019-04-29T18:08:35.625Z,59.29
2019-04-29T18:11:08.138Z,57.96
2019-04-29T18:13:35.886Z,59.69
2019-04-29T18:16:17.317Z,59.88
2019-04-29T18:18:49.191Z,59.90
2019-04-29T18:21:43.560Z,61.14
2019-04-29T18:24:15.430Z,61.93
2019-04-29T18:26:57.765Z,60.12
2019-04-29T18:29:28.398Z,60.43
2019-04-29T18:32:00.518Z,61.01
2019-04-29T18:34:29.306Z,62.60
2019-04-29T18:37:00.376Z,63.50
2019-04-29T18:39:31.673Z,65.57
2019-04-29T18:42:03.330Z,65.84
2019-04-29T18:44:31.228Z,66.25
2019-04-29T18:47:00.099Z,67.19
2019-04-29T18:49:29.014Z,66.55
2019-04-29T18:52:02.031Z,65.94
2019-04-29T18:54:28.657Z,65.78
2019-04-29T18:56:57.562Z,66.63
2019-04-29T18:59:33.644Z,65.82
2019-04-29T19:02:00.995Z,66.49
2019-04-29T19:04:42.302Z,66.86
2019-04-29T19:07:11.322Z,68.09
2019-04-29T19:09:41.604Z,68.29
2019-04-29T19:12:10.639Z,67.25
2019-04-29T19:14:39.613Z,67.44
2019-04-29T19:17:08.522Z,67.83
2019-04-29T19:19:39.279Z,66.66
2019-04-29T19:22:09.493Z,66.07
2019-04-29T19:24:38.675Z,65.30
2019-04-29T19:27:09.917Z,66.10
2019-04-29T19:29:38.837Z,65.47
2019-04-29T19:32:08.885Z,64.75
2019-04-29T19:34:42.780Z,63.36
2019-04-29T19:37:08.388Z,64.28
2019-04-29T19:39:37.331Z,64.62
2019-04-29T19:42:06.322Z,63.11
2019-04-29T19:44:36.760Z,63.33
2019-04-29T19:47:05.766Z,62.84
2019-04-29T19:49:36.042Z,63.44
2019-04-29T19:52:05.166Z,63.62
2019-04-29T19:54:34.211Z,63.43
2019-04-29T19:57:06.123Z,63.62
2019-04-29T19:59:36.121Z,65.06
2019-04-29T20:02:09.560Z,64.06
2019-04-29T20:04:40.917Z,64.02
2019-04-29T20:07:11.002Z,65.05
2019-04-29T20:09:41.548Z,65.99
2019-04-29T20:12:13.302Z,65.98
2019-04-29T20:14:42.373Z,66.42
2019-04-29T20:17:31.688Z,66.55
2019-04-29T20:20:35.028Z,66.99
2019-04-29T20:23:02.946Z,67.85
2019-04-29T20:25:37.840Z,67.34
2019-04-29T20:28:05.820Z,67.45
2019-04-29T20:30:34.637Z,68.00
2019-04-29T20:33:09.538Z,68.06
2019-04-29T20:35:35.768Z,68.76
2019-04-29T20:38:05.622Z,68.64
2019-04-29T20:40:38.842Z,68.85
2019-04-29T20:43:08.361Z,68.90
2019-04-29T20:45:36.833Z,69.25
2019-04-29T20:48:06.381Z,69.10
2019-04-29T20:50:35.735Z,69.18
2019-04-29T20:53:22.604Z,69.46
2019-04-29T20:55:51.901Z,69.37
2019-04-29T20:58:23.566Z,70.13
2019-04-29T21:00:51.703Z,70.26
2019-04-29T21:03:29.976Z,70.35
2019-04-29T21:06:02.197Z,69.91
2019-04-29T21:08:25.841Z,69.82
2019-04-29T21:10:56.475Z,70.40
2019-04-29T21:13:33.759Z,70.26
2019-04-29T21:16:16.483Z,69.99
2019-04-29T21:18:52.666Z,69.66
2019-04-29T21:21:16.203Z,70.22
2019-04-29T21:23:48.105Z,70.35
2019-04-29T21:26:16.455Z,70.26
2019-04-29T21:28:47.073Z,69.87
2019-04-29T21:31:19.817Z,69.95
2019-04-29T21:33:50.754Z,70.95
2019-04-29T21:36:30.704Z,71.44
2019-04-29T21:39:06.135Z,71.89
2019-04-29T21:41:43.144Z,71.68
2019-04-29T21:44:12.039Z,72.02
2019-04-29T21:46:40.941Z,71.69
2019-04-29T21:49:11.741Z,72.01
2019-04-29T21:51:41.799Z,71.58
2019-04-29T21:54:14.321Z,71.46
2019-04-29T21:56:46.270Z,71.89
2019-04-29T21:59:12.563Z,72.64
2019-04-29T22:01:41.647Z,72.87
2019-04-29T22:04:10.601Z,72.63
2019-04-29T22:06:39.479Z,72.65
2019-04-29T22:09:11.207Z,72.79
2019-04-29T22:11:43.469Z,73.02
2019-04-29T22:14:16.470Z,72.55
2019-04-29T22:16:54.281Z,73.14
2019-04-29T22:19:26.763Z,73.40
2019-04-29T22:22:01.460Z,74.03
2019-04-29T22:24:28.843Z,74.42
2019-04-29T22:27:04.114Z,74.54
2019-04-29T22:29:32.039Z,75.65
2019-04-29T22:31:59.578Z,76.44
2019-04-29T22:34:29.158Z,77.90
2019-04-29T22:37:01.020Z,78.53
2019-04-29T22:39:30.166Z,79.95
2019-04-29T22:42:18.302Z,81.72
2019-04-29T22:44:47.257Z,82.91
2019-04-29T22:47:17.391Z,83.81
2019-04-29T22:49:46.808Z,83.57
2019-04-29T22:52:17.520Z,84.25
2019-04-29T22:54:46.397Z,84.17
2019-04-29T22:57:15.682Z,84.27
2019-04-29T22:59:45.386Z,84.07
2019-04-29T23:02:15.761Z,84.24
2019-04-29T23:04:49.095Z,84.37
2019-04-29T23:07:17.620Z,83.78
2019-04-29T23:09:46.268Z,84.18
2019-04-29T23:12:18.786Z,84.36
2019-04-29T23:14:47.864Z,84.60
2019-04-29T23:17:16.791Z,84.71
2019-04-29T23:19:50.647Z,84.56
2019-04-29T23:22:42.969Z,84.68
2019-04-29T23:25:21.886Z,84.74
2019-04-29T23:27:52.715Z,85.66
2019-04-29T23:30:24.952Z,85.40
2019-04-29T23:32:53.856Z,83.85
2019-04-29T23:35:24.761Z,83.85
2019-04-29T23:37:58.717Z,83.20
2019-04-29T23:40:24.293Z,82.85
2019-04-29T23:42:53.220Z,83.66
2019-04-29T23:45:22.411Z,83.59
2019-04-29T23:47:51.418Z,84.61
2019-04-29T23:50:20.442Z,84.36
2019-04-29T23:52:51.825Z,85.21
2019-04-29T23:55:20.506Z,83.36
2019-04-29T23:58:02.840Z,82.59
